»·PEaware :: N8671J KVNY-KSNA

N8671J :: KVNY-KSNA

FLIGHT INFORMATION

Flight Status: Arrived
Operator: Privately registered:
United States
More flights under this callsign
Pilot: Skye D. (10623)
Aircraft: PIPER PA-44 SEMINOLE
(PA44)
More flights by this aircraft type
Origin: KVNY Van Nuys
United States
Destination: KSNA John Wayne-Orange Co
United States
More flights between these airports :: More routes between these airports
Route: +
File this flight plan on PilotEdge
Remarks: CAT 10
Altitude:
(Current/Filed)
0ft
Speed:
(Current/Filed)
0kts
Departed: 18-Feb-18 11:32 AM
Arrived: 18-Feb-18 12:27 PM
Distance/Time
Traveled:
45nm/0:54
Distance/Time
To Go:
Arrived

Flight Plot

Page will automatically refresh every two minutes.


Map Options




Map Legend


Flown Route
Filed Route
Departure Airport
Arrival Airport
Navaid (VOR, NDB)
Fix

Horizontal Profiles

Position Reports

Time Latitude Longitude Heading Altitude Ground
Speed
18-Feb-18 11:33 34.211364 -118.491959 80 805ft 0kts
18-Feb-18 11:34 34.211368 -118.491936 80 805ft 3kts
18-Feb-18 11:35 34.216102 -118.492210 357 805ft 18kts
18-Feb-18 11:36 34.218773 -118.492086 88 805ft 0kts
18-Feb-18 11:37 34.218773 -118.492085 88 805ft 0kts
18-Feb-18 11:38 34.218555 -118.491191 168 805ft 5kts
18-Feb-18 11:39 34.201347 -118.489198 171 1762ft 102kts
18-Feb-18 11:40 34.170349 -118.491074 193 2944ft 122kts
18-Feb-18 11:41 34.144393 -118.515606 221 4241ft 118kts
18-Feb-18 11:42 34.113454 -118.513052 171 5143ft 121kts
18-Feb-18 11:43 34.078407 -118.501057 172 5437ft 137kts
18-Feb-18 11:45 34.207226 -118.491985 89 805ft 0kts
18-Feb-18 11:46 34.207226 -118.491985 89 805ft 0kts
18-Feb-18 11:47 34.207226 -118.491985 89 805ft 0kts
18-Feb-18 11:48 34.207226 -118.491985 89 805ft 0kts
18-Feb-18 11:49 34.207226 -118.491985 89 805ft 0kts
18-Feb-18 11:50 34.207226 -118.491985 89 805ft 0kts
18-Feb-18 11:51 34.207230 -118.491626 87 805ft 0kts
18-Feb-18 11:52 34.208697 -118.491439 355 805ft 16kts
18-Feb-18 11:53 34.214140 -118.491944 354 805ft 22kts
18-Feb-18 11:54 34.218317 -118.492595 16 805ft 15kts
18-Feb-18 11:55 34.219031 -118.492362 139 805ft 0kts
18-Feb-18 11:56 34.218948 -118.492273 138 805ft 3kts
18-Feb-18 11:57 34.218763 -118.491938 87 805ft 0kts
18-Feb-18 11:58 34.218763 -118.491938 87 805ft 0kts
18-Feb-18 11:59 34.218763 -118.491938 87 805ft 0kts
18-Feb-18 12:00 34.218763 -118.491938 87 805ft 0kts
18-Feb-18 12:01 34.218763 -118.491938 87 805ft 0kts
18-Feb-18 12:02 34.206718 -118.490407 175 1197ft 94kts
18-Feb-18 12:03 34.182338 -118.498523 204 2565ft 97kts
18-Feb-18 12:04 34.163478 -118.527223 235 3449ft 127kts
18-Feb-18 12:05 34.144972 -118.555445 256 4219ft 120kts
18-Feb-18 12:06 34.170152 -118.560107 74 5299ft 138kts
18-Feb-18 12:07 34.153675 -118.553055 273 5517ft 114kts
18-Feb-18 12:08 34.184257 -118.562789 46 5529ft 151kts
18-Feb-18 12:09 34.173393 -118.535764 190 5606ft 122kts
18-Feb-18 12:10 34.136795 -118.538132 153 5536ft 134kts
18-Feb-18 12:11 34.108914 -118.522259 165 5565ft 136kts
18-Feb-18 12:12 34.076026 -118.505660 164 5564ft 140kts
18-Feb-18 12:13 34.041437 -118.487912 163 5565ft 142kts
18-Feb-18 12:14 34.006160 -118.469662 163 5565ft 143kts
18-Feb-18 12:15 33.972323 -118.452125 163 5565ft 143kts
18-Feb-18 12:16 33.936927 -118.433782 163 5557ft 143kts
18-Feb-18 12:17 33.910212 -118.403590 139 5556ft 148kts
18-Feb-18 12:18 33.883545 -118.371287 140 5556ft 148kts
18-Feb-18 12:19 33.857120 -118.339266 140 5567ft 147kts
18-Feb-18 12:20 33.829236 -118.305453 139 5565ft 148kts
18-Feb-18 12:21 33.800147 -118.270171 138 5565ft 150kts
18-Feb-18 12:22 33.776816 -118.229860 99 5565ft 154kts
18-Feb-18 12:23 33.769161 -118.179518 102 5566ft 154kts
18-Feb-18 12:24 33.760516 -118.127308 102 4873ft 168kts
18-Feb-18 12:25 33.752825 -118.081062 103 3880ft 147kts
18-Feb-18 12:26 33.745418 -118.036577 103 3504ft 125kts
18-Feb-18 12:27 33.739604 -118.001782 104 3505ft 109kts
18-Feb-18 12:28 33.734787 -117.973840 108 3138ft 92kts
18-Feb-18 12:29 33.726463 -117.940106 110 2472ft 119kts
18-Feb-18 12:30 33.718757 -117.907935 110 1581ft 89kts
18-Feb-18 12:31 33.709846 -117.879800 128 940ft 76kts
18-Feb-18 12:32 33.698048 -117.861785 142 504ft 66kts
18-Feb-18 12:33 33.683248 -117.864054 208 148ft 57kts
18-Feb-18 12:34 33.678084 -117.868354 297 60ft 0kts
18-Feb-18 12:35 33.677056 -117.869461 207 60ft 22kts
18-Feb-18 12:36 33.672838 -117.872123 208 60ft 14kts
18-Feb-18 12:37 33.671162 -117.874271 202 60ft 0kts

Navigation Log

Ident Type
1. KVNY Airport
2. KSNA Airport